createdAt,value
2022-09-02T00:00:59.823Z,71.40
2022-09-02T00:03:28.246Z,71.50
2022-09-02T00:05:54.964Z,71.60
2022-09-02T00:08:21.675Z,71.70
2022-09-02T00:10:48.415Z,71.70
2022-09-02T00:13:18.093Z,71.80
2022-09-02T00:15:45.033Z,71.70
2022-09-02T00:18:15.596Z,71.80
2022-09-02T00:20:47.519Z,71.90
2022-09-02T00:23:16.386Z,72.00
2022-09-02T00:25:44.783Z,72.20
2022-09-02T00:28:14.802Z,72.30
2022-09-02T00:30:42.919Z,72.40
2022-09-02T00:33:10.338Z,72.30
2022-09-02T00:35:37.398Z,72.30
2022-09-02T00:38:05.376Z,72.20
2022-09-02T00:40:33.502Z,72.30
2022-09-02T00:43:00.358Z,72.30
2022-09-02T00:45:27.098Z,72.40
2022-09-02T00:47:53.853Z,72.60
2022-09-02T00:50:26.498Z,72.60
2022-09-02T00:52:58.095Z,72.50
2022-09-02T00:55:28.807Z,72.50
2022-09-02T00:58:09.880Z,72.90
2022-09-02T01:00:42.457Z,73.00
2022-09-02T01:03:13.138Z,73.00
2022-09-02T01:05:45.560Z,72.90
2022-09-02T01:08:25.011Z,73.00
2022-09-02T01:10:55.661Z,73.00
2022-09-02T01:13:26.816Z,73.10
2022-09-02T01:15:58.943Z,73.00
2022-09-02T01:18:29.526Z,73.10
2022-09-02T01:20:58.410Z,73.00
2022-09-02T01:23:25.819Z,73.00
2022-09-02T01:25:55.173Z,73.00
2022-09-02T01:28:22.872Z,73.10
2022-09-02T01:30:52.879Z,73.10
2022-09-02T01:33:21.776Z,73.10
2022-09-02T01:35:49.290Z,73.20
2022-09-02T01:38:16.288Z,73.20
2022-09-02T01:40:43.279Z,73.30
2022-09-02T01:43:13.380Z,73.30
2022-09-02T01:45:43.203Z,73.30
2022-09-02T01:48:13.006Z,73.20
2022-09-02T01:50:46.837Z,73.20
2022-09-02T01:53:14.682Z,73.30
2022-09-02T01:55:41.725Z,73.20
2022-09-02T01:58:08.862Z,73.00
2022-09-02T02:00:35.821Z,73.00
2022-09-02T02:03:03.007Z,73.00
2022-09-02T02:05:31.880Z,73.20
2022-09-02T02:07:59.377Z,73.00
2022-09-02T02:10:26.452Z,73.00
2022-09-02T02:12:53.513Z,73.00
2022-09-02T02:17:49.952Z,73.00
2022-09-02T02:20:19.115Z,73.20
2022-09-02T02:22:46.591Z,73.20
2022-09-02T02:25:15.175Z,73.30
2022-09-02T02:27:43.798Z,73.10
2022-09-02T02:30:13.555Z,73.30
2022-09-02T02:32:41.852Z,73.30
2022-09-02T02:35:11.255Z,73.40
2022-09-02T02:37:38.261Z,73.40
2022-09-02T02:40:06.896Z,73.40
2022-09-02T02:42:34.090Z,73.40
2022-09-02T02:45:01.012Z,73.40
2022-09-02T02:47:27.713Z,73.30
2022-09-02T02:49:54.400Z,73.40
2022-09-02T02:52:21.644Z,73.30
2022-09-02T02:54:48.516Z,73.40
2022-09-02T02:57:15.247Z,73.30
2022-09-02T02:59:41.983Z,73.40
2022-09-02T03:02:10.458Z,73.40
2022-09-02T03:04:39.806Z,73.40
2022-09-02T03:07:07.193Z,73.40
2022-09-02T03:09:34.326Z,73.60
2022-09-02T03:12:01.392Z,73.60
2022-09-02T03:14:28.836Z,73.60
2022-09-02T03:16:55.533Z,73.50
2022-09-02T03:19:22.293Z,73.60
2022-09-02T03:21:49.301Z,73.60
2022-09-02T03:24:15.981Z,73.60
2022-09-02T03:26:43.854Z,73.80
2022-09-02T03:29:11.702Z,73.90
2022-09-02T03:31:38.596Z,73.90
2022-09-02T03:34:07.339Z,73.80
2022-09-02T03:36:39.324Z,73.90
2022-09-02T03:39:09.808Z,74.00
2022-09-02T03:41:37.482Z,74.10
2022-09-02T03:44:05.361Z,74.00
2022-09-02T03:46:32.683Z,74.10
2022-09-02T03:48:59.666Z,74.20
2022-09-02T03:51:27.073Z,74.10
2022-09-02T03:53:54.351Z,74.20
2022-09-02T03:56:22.465Z,74.20
2022-09-02T03:58:50.801Z,74.30
2022-09-02T04:01:27.498Z,74.30
2022-09-02T04:03:56.429Z,74.30
2022-09-02T04:06:26.305Z,74.40
2022-09-02T04:09:00.756Z,74.40
2022-09-02T04:11:27.499Z,74.50
2022-09-02T04:13:54.568Z,74.40
2022-09-02T04:16:29.178Z,74.50
2022-09-02T04:19:01.813Z,74.60
2022-09-02T04:21:31.908Z,74.60
2022-09-02T04:23:58.606Z,74.60
2022-09-02T04:26:25.618Z,74.80
2022-09-02T04:28:54.764Z,74.90
2022-09-02T04:31:25.707Z,74.90
2022-09-02T04:33:53.514Z,74.90
2022-09-02T04:36:22.264Z,75.10
2022-09-02T04:38:53.316Z,75.30
2022-09-02T04:41:27.001Z,75.30
2022-09-02T04:43:59.124Z,75.30
2022-09-02T04:46:34.346Z,75.30
2022-09-02T04:49:04.703Z,75.40
2022-09-02T04:51:33.023Z,75.40
2022-09-02T04:54:01.922Z,75.60
2022-09-02T04:56:32.082Z,75.60
2022-09-02T04:59:00.796Z,75.90
2022-09-02T05:01:35.266Z,75.90
2022-09-02T05:04:09.566Z,75.90
2022-09-02T05:06:44.071Z,76.10
2022-09-02T05:09:14.344Z,76.00
2022-09-02T05:11:41.624Z,76.10
2022-09-02T05:14:08.563Z,76.40
2022-09-02T05:16:40.436Z,76.40
2022-09-02T05:19:12.529Z,76.60
2022-09-02T05:21:44.832Z,76.50
2022-09-02T05:24:17.829Z,76.40
2022-09-02T05:26:44.733Z,76.40
2022-09-02T05:29:13.898Z,76.50
2022-09-02T05:31:41.961Z,76.60
2022-09-02T05:34:12.401Z,76.70
2022-09-02T05:36:39.273Z,76.70
2022-09-02T05:39:06.225Z,76.70
2022-09-02T05:41:34.915Z,76.70
2022-09-02T05:44:04.470Z,76.70
2022-09-02T05:46:33.692Z,76.70
2022-09-02T05:49:07.015Z,76.60
2022-09-02T05:51:42.680Z,76.60
2022-09-02T05:54:22.086Z,76.60
2022-09-02T05:56:53.631Z,76.50
2022-09-02T05:59:23.133Z,76.10
2022-09-02T06:01:50.836Z,75.80
2022-09-02T06:04:18.159Z,75.10
2022-09-02T06:06:46.942Z,74.80
2022-09-02T06:09:18.992Z,74.10
2022-09-02T06:11:49.202Z,73.80
2022-09-02T06:14:25.193Z,73.30
2022-09-02T06:16:54.872Z,73.90
2022-09-02T06:19:30.355Z,74.10
2022-09-02T06:21:59.849Z,74.50
2022-09-02T06:24:27.519Z,74.70
2022-09-02T06:26:55.746Z,74.80
2022-09-02T06:29:25.653Z,75.20
2022-09-02T06:31:54.431Z,75.40
2022-09-02T06:34:26.778Z,75.50
2022-09-02T06:36:55.487Z,75.80
2022-09-02T06:39:25.739Z,76.10
2022-09-02T06:41:55.689Z,76.00
2022-09-02T06:44:24.565Z,76.00
2022-09-02T06:46:57.441Z,75.90
2022-09-02T06:49:26.353Z,76.10
2022-09-02T06:51:56.230Z,76.30
2022-09-02T06:54:28.289Z,76.10
2022-09-02T06:57:05.519Z,76.00
2022-09-02T06:59:33.459Z,76.10
2022-09-02T07:02:00.978Z,76.10
2022-09-02T07:04:47.001Z,75.90
2022-09-02T07:07:18.184Z,75.90
2022-09-02T07:10:00.707Z,75.20
2022-09-02T07:12:27.877Z,75.30
2022-09-02T07:14:59.740Z,75.70
2022-09-02T07:17:31.804Z,75.30
2022-09-02T07:20:04.467Z,74.70
2022-09-02T07:22:38.237Z,74.00
2022-09-02T07:25:07.213Z,73.80
2022-09-02T07:27:35.067Z,74.30
2022-09-02T07:30:01.889Z,74.30
2022-09-02T07:32:31.177Z,74.00
2022-09-02T07:34:58.186Z,73.50
2022-09-02T07:37:25.130Z,73.20
2022-09-02T07:39:54.350Z,73.10
2022-09-02T07:42:22.165Z,73.10
2022-09-02T07:44:48.863Z,73.10
2022-09-02T07:47:16.489Z,73.10
2022-09-02T07:52:32.537Z,72.30
2022-09-02T07:54:59.293Z,71.90
2022-09-02T07:57:26.188Z,71.90
2022-09-02T07:59:55.201Z,70.60
2022-09-02T08:02:21.909Z,70.00
2022-09-02T08:04:48.760Z,70.20
2022-09-02T08:07:16.806Z,69.90
2022-09-02T08:09:43.572Z,70.30
2022-09-02T08:12:10.244Z,70.90
2022-09-02T08:14:36.898Z,70.30
2022-09-02T08:17:03.646Z,69.20
2022-09-02T08:19:30.335Z,69.10
2022-09-02T08:22:05.463Z,68.40
2022-09-02T08:24:33.042Z,67.40
2022-09-02T08:27:00.180Z,68.00
2022-09-02T08:29:26.816Z,66.60
2022-09-02T08:31:54.159Z,66.80
2022-09-02T08:34:21.184Z,66.70
2022-09-02T08:36:56.261Z,65.90
2022-09-02T08:42:15.501Z,65.10
2022-09-02T08:44:42.340Z,64.70
2022-09-02T08:47:18.245Z,63.80
2022-09-02T08:49:51.272Z,63.80
2022-09-02T08:52:31.203Z,63.50
2022-09-02T08:54:58.571Z,64.00
2022-09-02T08:57:27.490Z,64.00
2022-09-02T08:59:58.294Z,63.50
2022-09-02T09:02:53.804Z,63.80
2022-09-02T09:05:44.090Z,63.40
2022-09-02T09:08:21.685Z,63.40
2022-09-02T09:11:10.528Z,62.90
2022-09-02T09:14:06.911Z,62.90
2022-09-02T09:16:54.104Z,62.90
2022-09-02T09:19:23.483Z,62.30
2022-09-02T09:21:50.401Z,62.70
2022-09-02T09:24:29.004Z,62.10
2022-09-02T09:26:55.952Z,61.90
2022-09-02T09:29:22.685Z,60.70
2022-09-02T09:31:58.231Z,60.60
2022-09-02T09:34:24.900Z,60.20
2022-09-02T09:36:54.235Z,59.90
2022-09-02T09:39:26.753Z,60.10
2022-09-02T09:42:01.786Z,59.00
2022-09-02T09:44:48.190Z,59.10
2022-09-02T09:47:23.637Z,58.70
2022-09-02T09:49:53.013Z,58.10
2022-09-02T09:52:27.949Z,59.00
2022-09-02T09:55:12.367Z,57.30
2022-09-02T09:57:41.916Z,57.20
2022-09-02T10:00:34.439Z,57.30
2022-09-02T10:03:05.308Z,56.30
2022-09-02T10:05:37.603Z,55.70
2022-09-02T10:08:16.412Z,55.60
2022-09-02T10:11:00.704Z,56.30
2022-09-02T10:13:31.161Z,56.00
2022-09-02T10:16:20.427Z,56.60
2022-09-02T10:18:56.056Z,56.50
2022-09-02T10:21:45.201Z,56.10
2022-09-02T10:24:30.576Z,55.30
2022-09-02T10:26:59.778Z,55.20
2022-09-02T10:30:08.326Z,55.30
2022-09-02T10:32:47.613Z,55.40
2022-09-02T10:35:34.500Z,55.20
2022-09-02T10:38:29.308Z,53.30
2022-09-02T10:41:02.975Z,53.60
2022-09-02T10:43:47.599Z,54.50
2022-09-02T10:46:21.480Z,55.80
2022-09-02T10:48:59.486Z,54.30
2022-09-02T10:51:43.379Z,54.70
2022-09-02T10:54:44.927Z,53.00
2022-09-02T10:57:16.656Z,53.50
2022-09-02T10:59:50.000Z,54.40
2022-09-02T11:02:39.356Z,55.20
2022-09-02T11:05:14.667Z,55.30
2022-09-02T11:08:00.385Z,55.30
2022-09-02T11:10:35.095Z,55.70
2022-09-02T11:13:06.627Z,55.30
2022-09-02T11:15:53.314Z,55.20
2022-09-02T11:18:28.702Z,54.00
2022-09-02T11:21:42.965Z,54.20
2022-09-02T11:24:21.672Z,53.50
2022-09-02T11:26:57.273Z,53.60
2022-09-02T11:29:51.696Z,54.10
2022-09-02T11:32:25.755Z,53.50
2022-09-02T11:34:56.699Z,53.00
2022-09-02T11:37:45.718Z,52.60
2022-09-02T11:40:35.180Z,53.60
2022-09-02T11:43:21.979Z,53.70
2022-09-02T11:46:18.954Z,54.80
2022-09-02T11:49:41.728Z,54.60
2022-09-02T11:52:29.121Z,54.70
2022-09-02T11:55:07.880Z,54.50
2022-09-02T11:57:35.201Z,54.40
2022-09-02T12:00:06.948Z,54.90
2022-09-02T12:02:43.419Z,54.90
2022-09-02T12:05:35.191Z,54.40
2022-09-02T12:08:11.647Z,53.80
2022-09-02T12:10:45.029Z,54.20
2022-09-02T12:13:43.345Z,53.70
2022-09-02T12:16:12.859Z,54.00
2022-09-02T12:18:43.278Z,53.50
2022-09-02T12:21:23.248Z,53.40
2022-09-02T12:23:53.701Z,53.10
2022-09-02T12:26:25.961Z,53.00
2022-09-02T12:28:54.860Z,51.90
2022-09-02T12:31:42.419Z,52.30
2022-09-02T12:34:20.876Z,51.90
2022-09-02T12:36:48.835Z,51.90
2022-09-02T12:39:31.869Z,51.50
2022-09-02T12:42:07.433Z,51.10
2022-09-02T12:45:26.852Z,51.60
2022-09-02T12:48:13.869Z,51.40
2022-09-02T12:50:57.123Z,51.50
2022-09-02T12:53:23.804Z,51.20
2022-09-02T12:56:19.301Z,51.20
2022-09-02T12:58:50.225Z,50.60
2022-09-02T13:01:47.614Z,51.00
2022-09-02T13:04:44.471Z,50.80
2022-09-02T13:07:29.180Z,51.20
2022-09-02T13:10:43.991Z,51.70
2022-09-02T13:13:48.799Z,51.60
2022-09-02T13:16:44.616Z,51.60
2022-09-02T13:19:32.511Z,51.40
2022-09-02T13:22:15.056Z,52.10
2022-09-02T13:24:41.913Z,51.80
2022-09-02T13:27:45.529Z,52.10
2022-09-02T13:30:31.036Z,51.40
2022-09-02T13:33:11.858Z,52.00
2022-09-02T13:35:40.915Z,51.80
2022-09-02T13:38:15.627Z,51.50
2022-09-02T13:40:46.165Z,51.50
2022-09-02T13:43:13.069Z,52.00
2022-09-02T13:45:40.388Z,51.10
2022-09-02T13:48:28.311Z,52.40
2022-09-02T13:50:59.783Z,53.00
2022-09-02T13:53:58.874Z,52.70
2022-09-02T13:56:30.656Z,53.10
2022-09-02T13:58:57.352Z,53.20
2022-09-02T14:01:24.124Z,53.00
2022-09-02T14:03:56.758Z,53.10
2022-09-02T14:06:37.052Z,53.10
2022-09-02T14:09:18.229Z,52.90
2022-09-02T14:11:46.195Z,53.30
2022-09-02T14:14:16.391Z,52.80
2022-09-02T14:16:43.053Z,52.70
2022-09-02T14:19:27.843Z,52.70
2022-09-02T14:21:57.338Z,52.10
2022-09-02T14:24:29.657Z,52.00
2022-09-02T14:26:58.324Z,51.70
2022-09-02T14:29:27.858Z,52.40
2022-09-02T14:32:29.089Z,51.40
2022-09-02T14:35:11.980Z,51.50
2022-09-02T14:37:55.663Z,51.30
2022-09-02T14:40:37.409Z,51.60
2022-09-02T14:43:11.119Z,51.40
2022-09-02T14:45:39.176Z,52.00
2022-09-02T14:48:35.498Z,51.80
2022-09-02T14:51:05.427Z,52.40
2022-09-02T14:53:33.149Z,52.40
2022-09-02T14:56:00.318Z,52.80
2022-09-02T14:58:28.082Z,52.90
2022-09-02T15:01:01.949Z,52.70
2022-09-02T15:03:30.337Z,52.80
2022-09-02T15:05:57.532Z,52.90
2022-09-02T15:08:24.320Z,53.50
2022-09-02T15:10:52.599Z,53.50
2022-09-02T15:13:28.488Z,53.80
2022-09-02T15:15:56.811Z,54.10
2022-09-02T15:18:23.886Z,54.30
2022-09-02T15:20:51.135Z,54.10
2022-09-02T15:23:18.245Z,54.10
2022-09-02T15:25:45.105Z,54.30
2022-09-02T15:28:13.209Z,54.40
2022-09-02T15:30:40.558Z,54.70
2022-09-02T15:33:08.711Z,54.30
2022-09-02T15:35:43.512Z,54.20
2022-09-02T15:38:10.150Z,54.70
2022-09-02T15:40:36.824Z,54.60
2022-09-02T15:43:03.459Z,53.80
2022-09-02T15:45:30.707Z,54.20
2022-09-02T15:47:58.759Z,54.40
2022-09-02T15:50:26.172Z,54.00
2022-09-02T15:52:55.739Z,54.00
2022-09-02T15:55:29.021Z,54.00
2022-09-02T15:57:56.596Z,53.90
2022-09-02T16:00:23.535Z,54.10
2022-09-02T16:02:54.631Z,53.90
2022-09-02T16:05:21.392Z,53.80
2022-09-02T16:07:48.455Z,53.90
2022-09-02T16:10:15.356Z,53.90
2022-09-02T16:12:42.053Z,53.60
2022-09-02T16:15:09.068Z,53.70
2022-09-02T16:17:36.032Z,54.00
2022-09-02T16:20:04.076Z,54.10
2022-09-02T16:22:30.787Z,54.40
2022-09-02T16:24:57.417Z,53.90
2022-09-02T16:27:42.956Z,53.90
2022-09-02T16:30:09.956Z,53.80
2022-09-02T16:32:37.776Z,54.00
2022-09-02T16:35:04.751Z,54.30
2022-09-02T16:37:31.587Z,54.10
2022-09-02T16:39:58.476Z,54.00
2022-09-02T16:42:25.845Z,54.20
2022-09-02T16:44:52.542Z,54.60
2022-09-02T16:47:19.271Z,54.10
2022-09-02T16:49:46.443Z,53.90
2022-09-02T16:52:13.763Z,53.80
2022-09-02T16:54:41.249Z,53.90
2022-09-02T16:57:08.866Z,54.20
2022-09-02T16:59:35.541Z,54.10
2022-09-02T17:02:02.285Z,54.40
2022-09-02T17:04:29.650Z,54.50
2022-09-02T17:06:56.742Z,54.50
2022-09-02T17:09:23.407Z,54.60
2022-09-02T17:11:50.220Z,54.50
2022-09-02T17:14:21.534Z,54.50
2022-09-02T17:16:50.349Z,54.30
2022-09-02T17:19:22.575Z,54.50
2022-09-02T17:21:53.178Z,54.80
2022-09-02T17:24:23.415Z,55.20
2022-09-02T17:26:52.363Z,55.00
2022-09-02T17:29:47.381Z,55.10
2022-09-02T17:32:08.163Z,55.20
2022-09-02T17:34:34.795Z,55.50
2022-09-02T17:37:01.568Z,55.60
2022-09-02T17:39:28.644Z,55.80
2022-09-02T17:41:59.243Z,55.70
2022-09-02T17:44:35.792Z,55.70
2022-09-02T17:47:05.777Z,55.90
2022-09-02T17:49:33.548Z,55.80
2022-09-02T17:52:00.171Z,56.00
2022-09-02T17:54:27.900Z,55.60
2022-09-02T17:57:11.805Z,55.80
2022-09-02T17:59:51.173Z,56.20
2022-09-02T18:02:35.880Z,56.20
2022-09-02T18:05:18.859Z,57.20
2022-09-02T18:08:23.047Z,56.90
2022-09-02T18:10:57.499Z,57.10
2022-09-02T18:13:54.855Z,56.30
2022-09-02T18:16:37.137Z,56.90
2022-09-02T18:19:04.032Z,56.90
2022-09-02T18:22:08.406Z,57.10
2022-09-02T18:24:55.325Z,57.20
2022-09-02T18:27:46.677Z,57.40
2022-09-02T18:30:39.163Z,57.70
2022-09-02T18:33:16.595Z,57.70
2022-09-02T18:36:08.469Z,57.80
2022-09-02T18:38:44.107Z,58.30
2022-09-02T18:41:32.621Z,58.50
2022-09-02T18:44:26.931Z,58.90
2022-09-02T18:47:08.487Z,60.30
2022-09-02T18:49:38.528Z,59.90
2022-09-02T18:52:09.537Z,59.70
2022-09-02T18:55:02.647Z,60.10
2022-09-02T18:57:35.650Z,60.30
2022-09-02T19:00:12.599Z,60.40
2022-09-02T19:02:50.149Z,61.00
2022-09-02T19:05:20.609Z,60.80
2022-09-02T19:08:19.983Z,61.10
2022-09-02T19:10:46.779Z,61.20
2022-09-02T19:13:13.888Z,61.40
2022-09-02T19:15:40.613Z,61.40
2022-09-02T19:18:08.047Z,61.50
2022-09-02T19:20:35.762Z,61.70
2022-09-02T19:23:05.267Z,61.90
2022-09-02T19:25:34.303Z,62.30
2022-09-02T19:28:02.387Z,62.50
2022-09-02T19:30:35.892Z,62.10
2022-09-02T19:33:07.263Z,62.30
2022-09-02T19:35:36.292Z,70.10
2022-09-02T19:38:03.560Z,62.20
2022-09-02T19:40:33.516Z,61.80
2022-09-02T19:43:03.206Z,62.10
2022-09-02T19:45:38.302Z,62.10
2022-09-02T19:48:08.847Z,62.40
2022-09-02T19:50:42.064Z,62.60
2022-09-02T19:53:18.205Z,62.20
2022-09-02T19:55:44.973Z,62.30
2022-09-02T19:58:11.688Z,62.40
2022-09-02T20:00:42.251Z,62.40
2022-09-02T20:03:10.308Z,62.40
2022-09-02T20:05:40.237Z,62.70
2022-09-02T20:08:10.598Z,62.50
2022-09-02T20:10:38.504Z,62.70
2022-09-02T20:13:06.714Z,62.70
2022-09-02T20:15:37.381Z,62.80
2022-09-02T20:18:15.605Z,62.80
2022-09-02T20:20:47.626Z,63.30
2022-09-02T20:23:17.436Z,62.70
2022-09-02T20:26:06.194Z,63.40
2022-09-02T20:29:02.708Z,63.00
2022-09-02T20:31:38.681Z,62.70
2022-09-02T20:34:29.534Z,62.80
2022-09-02T20:37:40.918Z,63.00
2022-09-02T20:40:34.181Z,63.10
2022-09-02T20:43:42.965Z,63.60
2022-09-02T20:46:15.860Z,64.00
2022-09-02T20:48:42.579Z,64.20
2022-09-02T20:51:20.153Z,64.60
2022-09-02T20:54:19.815Z,64.30
2022-09-02T20:57:11.371Z,64.60
2022-09-02T20:59:47.482Z,64.60
2022-09-02T21:02:18.182Z,65.10
2022-09-02T21:04:52.800Z,64.80
2022-09-02T21:07:37.462Z,65.00
2022-09-02T21:10:16.676Z,65.00
2022-09-02T21:12:59.178Z,65.00
2022-09-02T21:15:33.169Z,64.90
2022-09-02T21:18:11.939Z,64.90
2022-09-02T21:20:42.915Z,65.20
2022-09-02T21:23:27.221Z,65.40
2022-09-02T21:26:48.993Z,65.30
2022-09-02T21:29:41.965Z,65.40
2022-09-02T21:32:29.511Z,65.50
2022-09-02T21:35:02.427Z,65.70
2022-09-02T21:37:32.484Z,65.70
2022-09-02T21:40:07.461Z,65.70
2022-09-02T21:42:59.943Z,65.70
2022-09-02T21:45:52.840Z,65.70
2022-09-02T21:48:34.979Z,65.80
2022-09-02T21:51:27.771Z,65.70
2022-09-02T21:54:12.370Z,65.90
2022-09-02T21:56:52.133Z,66.20
2022-09-02T21:59:35.437Z,66.20
2022-09-02T22:02:12.316Z,66.30
2022-09-02T22:05:14.104Z,66.60
2022-09-02T22:07:51.104Z,66.70
2022-09-02T22:10:55.477Z,67.00
2022-09-02T22:13:23.632Z,67.00
2022-09-02T22:15:59.463Z,66.90
2022-09-02T22:18:52.164Z,66.90
2022-09-02T22:21:55.042Z,67.10
2022-09-02T22:24:29.617Z,67.20
2022-09-02T22:27:13.817Z,67.40
2022-09-02T22:29:58.230Z,67.50
2022-09-02T22:32:31.658Z,67.40
2022-09-02T22:35:14.777Z,67.60
2022-09-02T22:37:58.186Z,67.60
2022-09-02T22:40:27.385Z,67.70
2022-09-02T22:43:01.527Z,67.70
2022-09-02T22:45:55.637Z,67.70
2022-09-02T22:48:49.164Z,67.90
2022-09-02T22:52:06.772Z,67.90
2022-09-02T22:54:33.405Z,68.10
2022-09-02T22:57:38.501Z,68.30
2022-09-02T23:00:11.808Z,68.20
2022-09-02T23:02:44.649Z,68.40
2022-09-02T23:05:42.931Z,68.40
2022-09-02T23:08:13.256Z,68.40
2022-09-02T23:10:50.587Z,68.40
2022-09-02T23:13:56.096Z,68.50
2022-09-02T23:17:03.611Z,68.60
2022-09-02T23:19:44.133Z,68.60
2022-09-02T23:22:41.880Z,68.60
2022-09-02T23:25:36.617Z,68.50
2022-09-02T23:28:12.397Z,68.70
2022-09-02T23:31:12.707Z,68.80
2022-09-02T23:33:54.540Z,68.90
2022-09-02T23:36:34.192Z,69.00
2022-09-02T23:39:22.037Z,69.10
2022-09-02T23:41:48.771Z,69.10
2022-09-02T23:44:16.423Z,69.00
2022-09-02T23:47:04.139Z,69.20
2022-09-02T23:50:05.373Z,69.30
2022-09-02T23:53:12.691Z,69.40
2022-09-02T23:55:46.170Z,69.50
2022-09-02T23:58:42.273Z,69.50
